Time;durP1;ratioP1;P1;durP2;ratioP2;P2;SDS_P1;SDS_P2;PMS_P1;PMS_P2;Temp;Humidity;BMP_temperature;BMP_pressure;BME280_temperature;BME280_humidity;BME280_pressure;Samples;Min_cycle;Max_cycle;Signal;HPM_P1;HPM_P2
2023/04/01 00:00:25;;;;;;;2.87;0.90;;;;;;;12.66;55.80;96426.22;8383011;28;20279;-72
2023/04/01 00:04:28;;;;;;;2.10;1.03;;;;;;;12.73;55.68;96432.59;8382907;28;20387;-72
2023/04/01 00:08:35;;;;;;;3.57;0.97;;;;;;;12.86;55.24;96419.50;8382769;28;20339;-72
2023/04/01 00:12:39;;;;;;;2.97;1.10;;;;;;;12.65;55.82;96422.81;8382544;28;20233;-72
2023/04/01 00:16:42;;;;;;;3.23;0.90;;;;;;;12.77;55.75;96423.63;8382096;28;20229;-71
2023/04/01 00:20:46;;;;;;;3.93;1.30;;;;;;;12.39;55.93;96364.28;8382479;28;20339;-72
2023/04/01 00:24:50;;;;;;;3.77;1.10;;;;;;;12.73;56.50;96417.03;8382047;28;20248;-72
2023/04/01 00:28:53;;;;;;;4.47;0.97;;;;;;;12.54;56.12;96428.00;8382212;28;20544;-72
2023/04/01 00:32:55;;;;;;;4.03;1.10;;;;;;;12.64;56.06;96434.16;8381935;28;20325;-71
2023/04/01 00:36:58;;;;;;;2.90;1.00;;;;;;;12.61;55.65;96423.19;8381765;28;20532;-72
2023/04/01 00:41:02;;;;;;;1.67;0.87;;;;;;;12.48;56.35;96428.47;8381825;28;20491;-72
2023/04/01 00:45:27;;;;;;;2.43;0.90;;;;;;;12.48;56.19;96433.66;8381616;28;20225;-72
2023/04/01 00:49:34;;;;;;;4.57;1.03;;;;;;;12.62;55.69;96428.25;8381632;28;20241;-72
2023/04/01 00:53:40;;;;;;;1.63;0.87;;;;;;;12.71;55.58;96411.94;8380853;28;20521;-72
2023/04/01 00:57:45;;;;;;;2.37;0.60;;;;;;;12.26;56.07;96362.63;8379920;28;20306;-71
2023/04/01 01:01:48;;;;;;;3.10;1.00;;;;;;;12.62;55.95;96424.81;8381198;28;20764;-71
2023/04/01 01:06:11;;;;;;;1.93;0.70;;;;;;;12.75;55.69;96422.09;8380887;28;20235;-72
2023/04/01 01:10:17;;;;;;;2.17;0.70;;;;;;;12.82;55.10;96420.69;8380159;28;20228;-72
2023/04/01 01:14:28;;;;;;;2.23;1.00;;;;;;;12.74;54.98;96415.25;8380826;28;20232;-72
2023/04/01 01:18:35;;;;;;;2.27;0.80;;;;;;;12.68;55.24;96411.38;8380382;28;20540;-72
2023/04/01 01:22:52;;;;;;;2.17;0.77;;;;;;;12.40;56.03;96426.47;8380303;28;20416;-72
2023/04/01 01:27:06;;;;;;;1.70;0.70;;;;;;;12.55;55.50;96421.88;8379698;28;20266;-72
2023/04/01 01:31:14;;;;;;;2.43;0.90;;;;;;;12.66;55.37;96426.22;8380317;28;20508;-72
2023/04/01 01:35:22;;;;;;;1.73;0.70;;;;;;;12.82;54.88;96418.91;8380033;28;20244;-72
2023/04/01 01:39:29;;;;;;;1.90;0.60;;;;;;;12.85;54.65;96407.44;8379567;28;20505;-72
2023/04/01 01:43:35;;;;;;;1.87;0.67;;;;;;;12.82;54.80;96411.13;8379531;28;20225;-72
2023/04/01 01:47:38;;;;;;;1.47;0.77;;;;;;;12.84;54.96;96413.59;8379691;28;20539;-71
2023/04/01 01:51:42;;;;;;;3.27;0.80;;;;;;;12.63;54.69;96409.13;8379320;28;20245;-69
2023/04/01 01:55:47;;;;;;;2.93;0.70;;;;;;;12.60;54.40;96398.94;8379082;28;20237;-72
2023/04/01 01:59:51;;;;;;;2.10;0.77;;;;;;;12.52;54.70;96404.75;8379288;28;20244;-72
2023/04/01 02:03:55;;;;;;;2.03;0.83;;;;;;;12.62;53.80;96391.91;8379070;28;20237;-72
2023/04/01 02:08:03;;;;;;;2.57;0.70;;;;;;;12.64;53.38;96394.34;8378470;28;20237;-73
2023/04/01 02:12:08;;;;;;;3.63;0.90;;;;;;;12.55;53.76;96389.91;8378967;28;20225;-71
2023/04/01 02:16:14;;;;;;;2.07;0.70;;;;;;;12.85;52.80;96391.84;8379178;28;20504;-72
2023/04/01 02:20:19;;;;;;;2.83;0.70;;;;;;;12.73;53.20;96383.25;8378880;28;20408;-72
2023/04/01 02:24:25;;;;;;;3.17;1.00;;;;;;;12.54;53.52;96396.03;8378560;28;20296;-72
2023/04/01 02:28:28;;;;;;;3.47;0.80;;;;;;;12.60;53.62;96385.16;8378853;28;20229;-72
2023/04/01 02:32:32;;;;;;;3.57;0.80;;;;;;;12.45;54.01;96381.97;8378715;28;20229;-71
2023/04/01 02:36:36;;;;;;;3.23;0.80;;;;;;;12.83;53.33;96388.53;8378385;28;20233;-72
2023/04/01 02:40:45;;;;;;;1.33;0.80;;;;;;;12.66;53.31;96397.66;8378597;28;20232;-72
2023/04/01 02:44:48;;;;;;;1.87;0.80;;;;;;;12.70;53.26;96397.31;8378152;28;20221;-72
2023/04/01 02:48:51;;;;;;;2.23;0.87;;;;;;;12.66;53.61;96408.88;8378535;28;20240;-72
2023/04/01 02:52:54;;;;;;;1.70;0.70;;;;;;;12.63;53.42;96400.50;8378293;28;20229;-72
2023/04/01 02:56:58;;;;;;;3.03;0.77;;;;;;;12.76;53.22;96409.00;8377951;28;20229;-72
2023/04/01 03:01:01;;;;;;;0.90;0.60;;;;;;;12.77;52.90;96396.81;8378237;28;20228;-72
2023/04/01 03:05:05;;;;;;;2.23;0.80;;;;;;;12.78;52.55;96404.50;8378266;28;20245;-72
2023/04/01 03:09:07;;;;;;;2.30;0.80;;;;;;;12.61;53.56;96412.78;8377825;28;20445;-72
2023/04/01 03:13:12;;;;;;;4.13;0.80;;;;;;;12.71;53.25;96409.34;8378047;28;20227;-72
2023/04/01 03:17:15;;;;;;;3.20;1.00;;;;;;;12.67;53.41;96417.50;8378146;28;20229;-71
2023/04/01 03:21:20;;;;;;;2.03;0.70;;;;;;;12.57;53.64;96411.38;8384201;28;20233;-73
2023/04/01 03:25:23;;;;;;;2.47;0.80;;;;;;;12.58;53.35;96413.81;8383804;28;20459;-72
2023/04/01 03:29:27;;;;;;;1.47;0.70;;;;;;;12.71;53.22;96421.50;8383950;28;20225;-72
2023/04/01 03:33:30;;;;;;;4.40;1.07;;;;;;;12.58;53.15;96418.22;8383416;28;20226;-72
2023/04/01 03:37:33;;;;;;;2.50;1.00;;;;;;;12.76;52.98;96428.97;8383556;28;20229;-72
2023/04/01 03:41:36;;;;;;;2.60;0.70;;;;;;;12.63;53.13;96419.50;8383451;28;20237;-72
2023/04/01 03:45:46;;;;;;;2.37;0.80;;;;;;;12.66;53.03;96426.22;8383498;28;20229;-72
2023/04/01 03:49:49;;;;;;;2.90;1.00;;;;;;;12.83;52.62;96438.75;8382910;28;20497;-72
2023/04/01 03:53:51;;;;;;;1.53;0.80;;;;;;;12.76;52.37;96431.56;8383101;28;20545;-72
2023/04/01 03:57:54;;;;;;;2.03;1.00;;;;;;;12.64;52.62;96431.56;8382891;28;20229;-72
2023/04/01 04:01:59;;;;;;;2.30;0.77;;;;;;;12.43;53.01;96433.19;8382795;28;20237;-72
2023/04/01 04:06:01;;;;;;;3.13;0.80;;;;;;;12.37;53.26;96437.06;8382822;28;20528;-72
2023/04/01 04:10:04;;;;;;;2.40;0.90;;;;;;;12.73;52.49;96434.38;8382646;28;20221;-72
2023/04/01 04:14:07;;;;;;;2.63;0.80;;;;;;;12.51;52.82;96439.47;8382872;28;20440;-72
2023/04/01 04:18:12;;;;;;;1.80;0.70;;;;;;;12.64;52.80;96438.50;8382585;28;20536;-72
2023/04/01 04:22:14;;;;;;;2.43;0.80;;;;;;;12.64;52.72;96435.91;8382409;28;20225;-72
2023/04/01 04:26:17;;;;;;;1.57;0.60;;;;;;;12.64;52.77;96444.53;8382018;28;20229;-72
2023/04/01 04:30:20;;;;;;;2.80;0.80;;;;;;;12.43;53.42;96441.81;8381871;28;20229;-72
2023/04/01 04:34:24;;;;;;;2.57;0.70;;;;;;;12.33;53.65;96446.84;8381945;28;20232;-72
2023/04/01 04:38:27;;;;;;;2.37;0.97;;;;;;;12.42;53.84;96449.72;8381608;28;20240;-72
2023/04/01 04:42:30;;;;;;;3.13;0.80;;;;;;;12.59;53.60;96451.03;8381896;28;20233;-73
2023/04/01 04:46:33;;;;;;;1.63;0.60;;;;;;;12.21;54.50;96452.16;8381522;28;20582;-72
2023/04/01 04:50:37;;;;;;;1.93;0.77;;;;;;;12.16;55.57;96451.69;8381550;28;20256;-72
2023/04/01 04:54:40;;;;;;;1.73;0.60;;;;;;;12.43;55.25;96457.41;8381278;28;20601;-72
2023/04/01 04:58:43;;;;;;;1.50;0.63;;;;;;;11.82;55.18;96391.88;8380766;28;20225;-72
2023/04/01 05:02:45;;;;;;;2.47;0.73;;;;;;;12.17;55.29;96451.56;8380647;28;20237;-72
2023/04/01 05:06:51;;;;;;;2.47;0.80;;;;;;;12.28;54.90;96451.59;8381002;28;20351;-72
2023/04/01 05:10:55;;;;;;;1.10;0.53;;;;;;;12.38;54.89;96448.31;8380995;28;20236;-72
2023/04/01 05:14:57;;;;;;;1.33;0.70;;;;;;;12.37;54.97;96449.22;8380765;28;20436;-71
2023/04/01 05:19:00;;;;;;;2.33;0.80;;;;;;;12.33;55.28;96446.84;8380726;28;20237;-72
2023/04/01 05:23:04;;;;;;;1.93;0.60;;;;;;;12.24;55.28;96450.16;8380104;28;20220;-72
2023/04/01 05:27:07;;;;;;;2.63;0.63;;;;;;;12.30;55.32;96443.69;8380564;28;20233;-72
2023/04/01 05:31:10;;;;;;;2.23;0.60;;;;;;;12.31;54.87;96447.94;8380195;28;20244;-72
2023/04/01 05:35:13;;;;;;;1.17;0.53;;;;;;;12.35;54.65;96443.34;8380196;28;20248;-72
2023/04/01 05:39:17;;;;;;;1.97;0.77;;;;;;;12.43;54.36;96447.00;8379872;28;20439;-72
2023/04/01 05:43:19;;;;;;;1.40;0.70;;;;;;;12.03;55.49;96442.22;8379356;28;20225;-72
2023/04/01 05:47:22;;;;;;;1.23;0.73;;;;;;;12.42;54.64;96442.75;8379791;28;20412;-72
2023/04/01 05:51:25;;;;;;;1.30;0.50;;;;;;;12.35;54.64;96449.34;8379748;28;20416;-72
2023/04/01 05:55:29;;;;;;;0.93;0.90;;;;;;;12.43;54.66;96449.59;8379511;28;20232;-72
2023/04/01 05:59:34;;;;;;;2.20;0.70;;;;;;;12.01;55.38;96445.84;8379179;28;20233;-72
2023/04/01 06:03:37;;;;;;;1.43;0.60;;;;;;;12.03;55.72;96457.78;8379041;28;20233;-72
2023/04/01 06:07:40;;;;;;;1.07;0.50;;;;;;;12.32;55.31;96460.78;8378989;28;20520;-71
2023/04/01 06:11:56;;;;;;;1.40;0.70;;;;;;;12.35;55.24;96459.72;8378919;28;20229;-71
2023/04/01 06:16:05;;;;;;;1.57;0.70;;;;;;;12.38;55.89;96454.31;8379149;28;20236;-72
2023/04/01 06:20:13;;;;;;;2.40;0.60;;;;;;;12.75;55.30;96458.47;8378871;28;20288;-71
2023/04/01 06:24:43;;;;;;;0.47;0.47;;;;;;;12.80;54.89;96454.56;8378893;28;20547;-72
2023/04/01 06:29:27;;;;;;;0.83;0.50;;;;;;;12.68;54.73;96451.16;8355839;28;20229;-72
2023/04/01 06:33:50;;;;;;;1.27;0.60;;;;;;;12.17;55.95;96461.94;8363378;28;20233;-72
2023/04/01 06:38:09;;;;;;;1.60;0.60;;;;;;;12.85;53.71;96452.44;8377994;28;20447;-71
2023/04/01 06:42:20;;;;;;;1.37;0.60;;;;;;;12.99;53.79;96453.97;8378642;28;20306;-72
2023/04/01 06:46:31;;;;;;;1.93;0.43;;;;;;;12.71;54.96;96465.66;8378655;28;20225;-71
2023/04/01 06:50:41;;;;;;;1.47;0.57;;;;;;;13.15;57.52;96447.56;8378701;28;20275;-71
2023/04/01 06:54:45;;;;;;;1.50;0.70;;;;;;;13.07;54.15;96448.16;8383806;28;20255;-71
2023/04/01 06:58:52;;;;;;;0.87;0.50;;;;;;;12.95;53.32;96439.56;8384935;28;20272;-71
2023/04/01 07:02:59;;;;;;;1.27;0.60;;;;;;;13.00;53.27;96436.59;8384912;28;20241;-72
2023/04/01 07:07:06;;;;;;;1.80;0.70;;;;;;;12.66;53.68;96440.06;8384829;28;20225;-71
2023/04/01 07:11:11;;;;;;;1.73;0.50;;;;;;;12.65;53.69;96437.56;8384552;28;20228;-71
2023/04/01 07:15:19;;;;;;;2.10;0.60;;;;;;;12.90;52.83;96432.13;8384680;28;20323;-72
2023/04/01 07:19:24;;;;;;;1.83;0.73;;;;;;;13.06;52.05;96423.09;8384243;28;20221;-72
2023/04/01 07:23:32;;;;;;;1.47;0.80;;;;;;;13.06;51.70;96429.16;8384251;28;20309;-72
2023/04/01 07:27:35;;;;;;;1.57;0.60;;;;;;;13.08;51.17;96427.25;8384251;28;20338;-72
2023/04/01 07:31:49;;;;;;;2.70;0.60;;;;;;;13.28;51.00;96441.25;8384324;28;20231;-72
2023/04/01 07:35:55;;;;;;;0.80;0.50;;;;;;;13.26;50.62;96450.13;8383539;28;20239;-71
2023/04/01 07:40:09;;;;;;;0.70;0.60;;;;;;;13.66;50.09;96447.78;8383835;28;20234;-72
2023/04/01 07:44:21;;;;;;;3.70;0.80;;;;;;;13.42;50.04;96452.38;8383716;28;20232;-71
2023/04/01 07:48:31;;;;;;;2.53;0.90;;;;;;;13.95;49.70;96452.41;8383625;28;20233;-71
2023/04/01 07:52:37;;;;;;;2.70;1.00;;;;;;;14.08;52.54;96447.03;8383365;28;20236;-71
2023/04/01 07:56:45;;;;;;;2.70;0.80;;;;;;;14.23;49.62;96450.94;8383008;28;20253;-72
2023/04/01 08:00:53;;;;;;;0.80;0.40;;;;;;;14.59;48.46;96461.06;8382631;28;20242;-71
2023/04/01 08:05:01;;;;;;;1.47;0.67;;;;;;;14.78;47.62;96452.50;8382184;28;20228;-72
2023/04/01 08:09:09;;;;;;;0.70;0.50;;;;;;;13.79;48.97;96436.41;8382798;28;20225;-72
2023/04/01 08:13:18;;;;;;;0.50;0.43;;;;;;;14.04;48.05;96456.03;8382987;28;20381;-72
2023/04/01 08:17:28;;;;;;;2.50;0.80;;;;;;;13.95;48.27;96462.00;8382567;28;20231;-72
2023/04/01 08:21:33;;;;;;;1.73;0.93;;;;;;;13.75;48.91;96451.44;8382486;28;20236;-72
2023/04/01 08:25:39;;;;;;;1.17;0.57;;;;;;;13.21;49.50;96444.47;8382234;28;20235;-71
2023/04/01 08:29:47;;;;;;;1.37;0.60;;;;;;;13.37;49.68;96465.75;8381664;28;20294;-69
2023/04/01 08:33:54;;;;;;;0.83;0.40;;;;;;;13.49;49.52;96461.34;8381717;28;20226;-71
2023/04/01 08:38:01;;;;;;;0.60;0.30;;;;;;;13.24;49.34;96457.25;8381683;28;20239;-71
2023/04/01 08:42:36;;;;;;;1.97;0.50;;;;;;;13.54;48.76;96464.41;8381440;28;20494;-71
2023/04/01 08:47:10;;;;;;;1.50;0.50;;;;;;;13.31;49.46;96463.63;8381292;28;20231;-71
2023/04/01 08:51:37;;;;;;;0.93;0.40;;;;;;;13.45;49.76;96467.75;8380896;28;20224;-72
2023/04/01 08:56:01;;;;;;;1.47;0.50;;;;;;;13.56;49.32;96470.31;8380881;28;20509;-71
2023/04/01 09:00:14;;;;;;;1.87;0.40;;;;;;;13.51;49.47;96462.03;8380548;28;20231;-71
2023/04/01 09:04:34;;;;;;;0.20;0.20;;;;;;;13.45;49.40;96458.16;8380564;28;20237;-71
2023/04/01 09:08:53;;;;;;;0.60;0.30;;;;;;;13.33;49.79;96459.16;8380610;28;20245;-72
2023/04/01 09:13:19;;;;;;;0.93;0.33;;;;;;;13.64;50.01;96467.09;8380541;28;20221;-72
2023/04/01 09:17:35;;;;;;;0.70;0.33;;;;;;;13.53;49.50;96465.34;8378750;28;20224;-72
2023/04/01 09:22:11;;;;;;;0.93;0.40;;;;;;;13.35;50.61;96462.44;8380048;28;20235;-72
2023/04/01 09:26:28;;;;;;;0.60;0.20;;;;;;;13.28;50.88;96475.06;8379797;28;20400;-72
2023/04/01 09:30:49;;;;;;;0.70;0.20;;;;;;;13.29;51.08;96468.94;8380015;28;20558;-72
2023/04/01 09:34:54;;;;;;;1.17;0.50;;;;;;;13.27;52.05;96481.22;8379150;28;20229;-72
2023/04/01 09:39:00;;;;;;;0.50;0.30;;;;;;;13.40;52.65;96475.91;8379458;28;20230;-71
2023/04/01 09:43:14;;;;;;;0.47;0.20;;;;;;;13.37;53.91;96476.16;8379771;28;20508;-71
2023/04/01 09:47:27;;;;;;;0.47;0.30;;;;;;;13.38;54.14;96480.38;8379691;28;20239;-72
2023/04/01 09:51:38;;;;;;;0.50;0.40;;;;;;;13.45;55.34;96485.94;8379204;28;20549;-72
2023/04/01 09:56:07;;;;;;;0.70;0.40;;;;;;;13.41;55.42;96493.16;8379652;28;20233;-72
2023/04/01 10:00:33;;;;;;;0.30;0.30;;;;;;;13.46;55.44;96496.22;8379516;28;20226;-72
2023/04/01 10:05:25;;;;;;;0.40;0.40;;;;;;;13.22;55.85;96491.16;8379054;28;20230;-72
2023/04/01 10:09:57;;;;;;;1.23;0.33;;;;;;;13.44;55.60;96492.06;8378555;28;20237;-71
2023/04/01 10:14:19;;;;;;;0.87;0.20;;;;;;;12.97;56.71;96492.25;8378844;28;20223;-71
2023/04/01 10:18:48;;;;;;;1.77;1.67;;;;;;;13.48;56.97;96491.72;8378954;28;20541;-71
2023/04/01 10:23:20;;;;;;;1.37;0.20;;;;;;;13.01;57.81;96485.03;8378067;28;20246;-72
2023/04/01 10:27:42;;;;;;;1.30;0.60;;;;;;;12.82;59.05;96475.25;8378125;28;20310;-72
2023/04/01 10:32:26;;;;;;;0.77;0.20;;;;;;;13.23;58.06;96478.97;8365857;28;20228;-72
2023/04/01 10:36:55;;;;;;;0.83;0.40;;;;;;;12.97;59.69;96481.03;8306280;28;20237;-72
2023/04/01 10:41:18;;;;;;;0.77;0.40;;;;;;;13.01;59.06;96483.25;8377719;28;20234;-71
2023/04/01 10:45:58;;;;;;;0.90;0.90;;;;;;;13.35;57.83;96482.44;8378377;28;20226;-71
2023/04/01 10:50:45;;;;;;;1.00;0.60;;;;;;;13.03;57.49;96477.94;8378688;28;20244;-71
2023/04/01 10:54:50;;;;;;;2.10;1.60;;;;;;;13.12;57.57;96461.63;8321818;28;20553;-71
2023/04/01 10:59:18;;;;;;;3.10;2.77;;;;;;;13.40;58.42;96485.47;8378052;28;20233;-71
2023/04/01 11:03:57;;;;;;;1.50;1.40;;;;;;;13.08;58.23;96468.03;8366059;28;20225;-72
2023/04/01 11:08:34;;;;;;;1.80;1.27;;;;;;;12.90;58.88;96475.47;8377474;28;20428;-71
2023/04/01 11:13:14;;;;;;;1.00;1.00;;;;;;;13.34;58.11;96475.56;8377773;28;20237;-70
2023/04/01 11:17:49;;;;;;;0.80;0.40;;;;;;;12.85;57.73;96464.59;8377471;28;20229;-71
2023/04/01 11:22:17;;;;;;;0.50;0.50;;;;;;;13.30;58.02;96468.00;8377473;28;20335;-71
2023/04/01 11:26:33;;;;;;;1.50;1.20;;;;;;;13.32;57.21;96464.47;8377644;28;20573;-71
2023/04/01 11:30:51;;;;;;;0.33;0.33;;;;;;;13.26;56.69;96470.94;8377703;28;20285;-71
2023/04/01 11:35:10;;;;;;;0.37;0.30;;;;;;;13.35;56.67;96470.25;8377314;28;20234;-71
2023/04/01 11:39:23;;;;;;;0.70;0.70;;;;;;;12.96;58.22;96472.38;8379190;28;20227;-72
2023/04/01 11:43:33;;;;;;;0.60;0.23;;;;;;;13.05;58.20;96476.88;8383502;28;20235;-72
2023/04/01 11:47:49;;;;;;;1.17;0.10;;;;;;;13.01;57.63;96477.25;8383489;28;20229;-71
2023/04/01 11:52:02;;;;;;;0.20;0.20;;;;;;;13.25;58.70;96480.50;8383045;28;20462;-71
2023/04/01 11:56:12;;;;;;;0.30;0.30;;;;;;;13.30;57.93;96474.97;8383201;28;20234;-72
2023/04/01 12:00:22;;;;;;;0.40;0.40;;;;;;;13.78;57.10;96479.78;8383018;28;20237;-72
2023/04/01 12:04:43;;;;;;;0.30;0.30;;;;;;;13.58;57.79;96489.22;8383051;28;20285;-72
2023/04/01 12:08:53;;;;;;;0.20;0.20;;;;;;;13.30;57.59;96474.97;8382442;28;20395;-71
2023/04/01 12:13:01;;;;;;;0.60;0.30;;;;;;;12.73;59.04;96486.34;8382696;28;20541;-71
2023/04/01 12:17:11;;;;;;;0.60;0.40;;;;;;;13.05;57.25;96482.06;8382453;28;20226;-72
2023/04/01 12:21:22;;;;;;;0.40;0.40;;;;;;;13.18;58.01;96481.13;8382200;28;20448;-72
2023/04/01 12:25:39;;;;;;;0.80;0.30;;;;;;;13.09;58.29;96487.84;8382186;28;20222;-72
2023/04/01 12:29:55;;;;;;;0.60;0.40;;;;;;;13.49;58.26;96492.53;8381718;28;20242;-72
2023/04/01 12:34:14;;;;;;;0.37;0.30;;;;;;;12.99;58.42;96489.53;8382218;28;20232;-71
2023/04/01 12:38:25;;;;;;;0.30;0.30;;;;;;;13.00;59.11;96488.56;8381612;28;20221;-71
2023/04/01 12:42:46;;;;;;;0.40;0.40;;;;;;;13.35;59.08;96485.03;8381865;28;20426;-72
2023/04/01 12:47:02;;;;;;;0.40;0.40;;;;;;;13.28;59.68;96485.47;8381192;28;20231;-71
2023/04/01 12:51:30;;;;;;;0.27;0.23;;;;;;;13.11;58.68;96465.97;8380926;28;20225;-72
2023/04/01 12:55:39;;;;;;;0.83;0.40;;;;;;;13.33;59.50;96489.50;8381320;28;20334;-73
2023/04/01 12:59:54;;;;;;;0.40;0.40;;;;;;;13.11;59.85;96494.56;8380788;28;20225;-71
2023/04/01 13:04:21;;;;;;;0.47;0.47;;;;;;;13.26;60.37;96499.53;8381164;28;20552;-73
2023/04/01 13:08:34;;;;;;;1.97;0.60;;;;;;;13.42;60.18;96492.22;8380694;28;20229;-73
2023/04/01 13:13:05;;;;;;;0.30;0.30;;;;;;;12.93;61.68;96500.38;8380929;28;20233;-73
2023/04/01 13:17:12;;;;;;;0.30;0.30;;;;;;;13.35;60.51;96500.63;8367700;28;20214;-73
2023/04/01 13:21:24;;;;;;;0.50;0.50;;;;;;;13.41;60.67;96500.13;8380189;28;20225;-73
2023/04/01 13:25:35;;;;;;;1.73;1.37;;;;;;;13.42;61.01;96506.97;8380403;28;20570;-74
2023/04/01 13:29:40;;;;;;;1.20;1.10;;;;;;;13.28;61.05;96498.44;8380268;28;20235;-73
2023/04/01 13:33:47;;;;;;;0.80;0.80;;;;;;;13.08;61.91;96504.41;8379787;28;20237;-72
2023/04/01 13:37:58;;;;;;;0.40;0.40;;;;;;;13.48;61.33;96512.53;8380187;28;20245;-72
2023/04/01 13:42:15;;;;;;;0.37;0.20;;;;;;;12.95;62.38;96514.91;8379906;28;20510;-73
2023/04/01 13:46:41;;;;;;;0.60;0.60;;;;;;;13.19;61.71;96514.75;8379528;28;20238;-71
2023/04/01 13:51:09;;;;;;;0.30;0.30;;;;;;;13.24;61.13;96517.03;8379263;28;20237;-71
2023/04/01 13:55:37;;;;;;;0.30;0.30;;;;;;;13.10;61.13;96518.94;8379619;28;20284;-71
2023/04/01 14:00:05;;;;;;;2.27;0.40;;;;;;;13.11;61.84;96522.34;8379458;28;20235;-71
2023/04/01 14:04:22;;;;;;;0.50;0.50;;;;;;;13.39;61.72;96531.44;8378244;28;20498;-71
2023/04/01 14:08:34;;;;;;;1.23;0.47;;;;;;;13.12;62.34;96529.22;8378939;28;20231;-72
2023/04/01 14:12:41;;;;;;;0.30;0.30;;;;;;;13.21;62.26;96530.25;8378963;28;20514;-72
2023/04/01 14:17:13;;;;;;;0.60;0.57;;;;;;;13.32;62.38;96532.06;8378441;28;20226;-70
2023/04/01 14:21:22;;;;;;;0.60;0.60;;;;;;;13.30;62.42;96539.97;8365647;28;20233;-70
2023/04/01 14:25:42;;;;;;;0.70;0.70;;;;;;;13.15;62.14;96515.97;8378399;28;20410;-72
2023/04/01 14:29:53;;;;;;;0.90;0.90;;;;;;;13.32;62.47;96542.47;8378274;28;20403;-72
2023/04/01 14:34:06;;;;;;;1.20;0.93;;;;;;;13.35;62.48;96544.81;8378622;28;20233;-72
2023/04/01 14:38:28;;;;;;;1.10;1.10;;;;;;;13.17;62.62;96541.84;8378476;28;20265;-72
2023/04/01 14:42:46;;;;;;;1.50;1.40;;;;;;;13.17;63.37;96547.03;8378713;28;20243;-71
2023/04/01 14:47:09;;;;;;;0.83;0.83;;;;;;;13.23;63.19;96544.81;8378078;28;20232;-71
2023/04/01 14:51:16;;;;;;;0.80;0.80;;;;;;;13.09;63.46;96551.03;8378309;28;20229;-72
2023/04/01 14:55:25;;;;;;;0.50;0.50;;;;;;;13.19;63.57;96551.16;8378218;28;20230;-71
2023/04/01 14:59:29;;;;;;;0.80;0.80;;;;;;;13.04;64.13;96542.78;8378346;28;20228;-72
2023/04/01 15:03:35;;;;;;;1.47;0.70;;;;;;;13.13;64.30;96549.03;8377929;28;20234;-70
2023/04/01 15:07:59;;;;;;;0.93;0.93;;;;;;;13.00;63.58;96549.16;8377781;28;20229;-71
2023/04/01 15:12:12;;;;;;;0.90;0.90;;;;;;;13.14;63.27;96552.50;8368132;28;20244;-73
2023/04/01 15:16:22;;;;;;;0.90;0.90;;;;;;;13.34;63.27;96554.38;8382685;28;20221;-72
2023/04/01 15:20:40;;;;;;;0.67;0.67;;;;;;;13.13;63.36;96553.41;8384546;28;20583;-72
2023/04/01 15:24:48;;;;;;;1.10;1.00;;;;;;;12.98;63.99;96550.22;8383729;28;20230;-71
2023/04/01 15:29:02;;;;;;;1.20;1.10;;;;;;;13.04;63.46;96553.19;8383961;28;20227;-74
2023/04/01 15:33:26;;;;;;;1.50;1.40;;;;;;;13.04;62.65;96567.94;8384277;28;20438;-72
2023/04/01 15:37:36;;;;;;;2.27;2.07;;;;;;;12.81;63.44;96567.94;8379413;28;20228;-72
2023/04/01 15:41:46;;;;;;;1.00;0.90;;;;;;;12.74;64.10;96569.34;8383383;28;20233;-71
2023/04/01 15:45:55;;;;;;;1.63;1.43;;;;;;;12.62;63.11;96555.50;8382810;28;20232;-71
2023/04/01 15:50:19;;;;;;;1.33;1.23;;;;;;;12.61;63.64;96589.38;8383307;28;20229;-71
2023/04/01 15:54:48;;;;;;;0.60;0.60;;;;;;;12.43;65.54;96586.34;8383243;28;20236;-71
2023/04/01 15:59:00;;;;;;;3.13;1.33;;;;;;;13.21;68.16;96590.03;8383170;28;20513;-72
2023/04/01 16:03:21;;;;;;;0.70;0.70;;;;;;;12.85;63.55;96592.75;8383216;28;20242;-72
2023/04/01 16:07:54;;;;;;;0.63;0.60;;;;;;;12.75;63.64;96594.34;8383134;28;20239;-74
2023/04/01 16:12:01;;;;;;;0.60;0.60;;;;;;;12.79;63.56;96593.19;8380245;28;20419;-73
2023/04/01 16:16:12;;;;;;;1.17;1.07;;;;;;;12.68;63.88;96588.00;8382755;28;20240;-73
2023/04/01 16:20:20;;;;;;;0.80;0.80;;;;;;;12.83;63.72;96598.97;8382487;28;20225;-73
2023/04/01 16:24:26;;;;;;;0.60;0.60;;;;;;;12.50;64.29;96596.19;8381782;28;20442;-73
2023/04/01 16:28:30;;;;;;;1.13;0.70;;;;;;;12.40;64.80;96603.00;8382364;28;20227;-72
2023/04/01 16:32:41;;;;;;;1.77;0.90;;;;;;;12.59;63.40;96610.25;8382330;28;20233;-73
2023/04/01 16:36:49;;;;;;;0.40;0.40;;;;;;;12.54;62.96;96609.75;8380427;28;20221;-71
2023/04/01 16:41:02;;;;;;;0.80;0.80;;;;;;;12.78;62.94;96614.09;8381292;28;20343;-72
2023/04/01 16:45:20;;;;;;;0.70;0.53;;;;;;;12.64;63.25;96618.56;8381918;28;20233;-72
2023/04/01 16:49:31;;;;;;;0.80;0.80;;;;;;;12.89;62.73;96621.91;8382102;28;20221;-71
2023/04/01 16:53:42;;;;;;;0.80;0.80;;;;;;;12.56;63.54;96626.06;8381056;28;20236;-72
2023/04/01 16:57:50;;;;;;;1.80;0.77;;;;;;;12.81;63.14;96637.22;8380520;28;20249;-72
2023/04/01 17:01:55;;;;;;;1.43;1.20;;;;;;;12.36;63.19;96572.19;8381471;28;20233;-72
2023/04/01 17:06:11;;;;;;;3.07;1.97;;;;;;;13.02;62.39;96635.66;8380752;28;20237;-73
2023/04/01 17:10:36;;;;;;;1.10;1.00;;;;;;;12.97;62.63;96640.34;8380615;28;20232;-73
2023/04/01 17:14:47;;;;;;;2.27;1.50;;;;;;;12.76;62.92;96637.59;8380809;28;20335;-72
2023/04/01 17:18:58;;;;;;;1.97;1.60;;;;;;;12.83;62.82;96651.78;8380132;28;20225;-73
2023/04/01 17:23:10;;;;;;;1.50;1.30;;;;;;;12.65;63.79;96651.34;8379787;28;20246;-73
2023/04/01 17:27:22;;;;;;;4.27;2.60;;;;;;;12.70;63.17;96657.06;8378512;28;20222;-72
2023/04/01 17:31:39;;;;;;;5.30;3.43;;;;;;;12.75;63.23;96668.88;8380602;28;20552;-74
2023/04/01 17:35:54;;;;;;;10.37;6.20;;;;;;;12.71;63.17;96679.47;8379791;28;20224;-73
2023/04/01 17:40:15;;;;;;;9.03;5.13;;;;;;;12.62;63.23;96674.97;8379259;28;20438;-73
2023/04/01 17:44:36;;;;;;;5.83;3.10;;;;;;;12.67;62.92;96683.25;8379855;28;20410;-74
2023/04/01 17:48:43;;;;;;;7.20;3.67;;;;;;;12.74;62.98;96690.56;8379817;28;20236;-74
2023/04/01 17:52:50;;;;;;;4.97;2.87;;;;;;;12.63;63.79;96697.41;8379713;28;20225;-74
2023/04/01 17:57:04;;;;;;;7.30;3.60;;;;;;;12.69;63.48;96696.94;8378283;28;20271;-74
2023/04/01 18:01:16;;;;;;;4.67;2.57;;;;;;;12.49;64.11;96702.78;8378692;28;20245;-72
2023/04/01 18:05:28;;;;;;;5.50;2.53;;;;;;;12.71;63.00;96708.03;8379671;28;20225;-74
2023/04/01 18:09:36;;;;;;;5.77;2.50;;;;;;;12.43;63.29;96709.25;8379777;28;20233;-73
2023/04/01 18:14:10;;;;;;;6.03;2.60;;;;;;;12.66;62.75;96712.75;8379556;28;20264;-72
2023/04/01 18:18:27;;;;;;;0.67;0.50;;;;;;;12.37;63.76;96706.25;8378613;28;20213;-74
2023/04/01 18:22:38;;;;;;;2.10;1.40;;;;;;;12.57;63.03;96720.41;8378194;28;20237;-75
2023/04/01 18:26:44;;;;;;;0.90;0.90;;;;;;;12.50;63.26;96728.59;8378933;28;20240;-70
2023/04/01 18:30:55;;;;;;;4.43;2.63;;;;;;;12.49;62.66;96726.97;8379156;28;20233;-74
2023/04/01 18:35:03;;;;;;;0.80;0.60;;;;;;;12.70;62.87;96722.00;8378600;28;20233;-74
2023/04/01 18:39:12;;;;;;;1.00;0.83;;;;;;;12.60;62.40;96728.78;8378774;28;20224;-76
2023/04/01 18:43:22;;;;;;;2.33;2.17;;;;;;;12.58;62.80;96738.44;8378950;28;20398;-74
2023/04/01 18:47:34;;;;;;;2.90;2.60;;;;;;;12.37;63.11;96740.00;8378998;28;20225;-74
2023/04/01 18:51:40;;;;;;;2.73;2.53;;;;;;;12.60;62.58;96748.72;8385423;28;20233;-73
2023/04/01 18:55:48;;;;;;;0.83;0.73;;;;;;;12.28;63.06;96746.66;8385032;28;20244;-72
2023/04/01 18:59:54;;;;;;;1.50;1.37;;;;;;;12.48;62.55;96747.84;8385326;28;20549;-74
2023/04/01 19:04:04;;;;;;;1.60;1.50;;;;;;;12.48;62.99;96758.22;8384960;28;20232;-74
2023/04/01 19:08:20;;;;;;;1.30;1.07;;;;;;;12.47;62.46;96743.56;8384987;28;20544;-73
2023/04/01 19:12:33;;;;;;;1.20;1.07;;;;;;;12.58;62.37;96766.19;8385103;28;20233;-74
2023/04/01 19:16:47;;;;;;;1.40;1.30;;;;;;;12.39;62.54;96771.84;8384905;28;20228;-73
2023/04/01 19:20:57;;;;;;;1.27;1.10;;;;;;;12.53;61.90;96758.75;8384710;28;20240;-74
2023/04/01 19:25:19;;;;;;;2.37;1.20;;;;;;;12.65;61.48;96772.59;8383403;28;20233;-73
2023/04/01 19:29:37;;;;;;;1.60;0.90;;;;;;;12.66;61.68;96782.03;8385426;28;20244;-75
2023/04/01 19:33:52;;;;;;;1.37;0.90;;;;;;;12.51;61.55;96771.00;8383814;28;20537;-75
2023/04/01 19:38:00;;;;;;;1.27;0.70;;;;;;;12.67;61.75;96774.16;8383836;28;20256;-75
2023/04/01 19:42:08;;;;;;;2.07;0.90;;;;;;;12.45;61.68;96780.06;8384241;28;20223;-72
2023/04/01 19:46:18;;;;;;;1.60;0.70;;;;;;;12.17;61.29;96726.66;8384524;28;20572;-75